Time;durP1;ratioP1;P1;durP2;ratioP2;P2;SDS_P1;SDS_P2;PMS_P1;PMS_P2;Temp;Humidity;BMP_temperature;BMP_pressure;BME280_temperature;BME280_humidity;BME280_pressure;Samples;Min_cycle;Max_cycle;Signal;HPM_P1;HPM_P2
2023/01/14 00:01:05;;;;;;;25.10;4.90;;;;;;;8.14;100.00;98124.78;4833485;29;20490;-87
2023/01/14 00:03:31;;;;;;;19.38;4.80;;;;;;;8.24;100.00;98115.72;4846307;29;20033;-87
2023/01/14 00:05:58;;;;;;;36.70;6.25;;;;;;;8.15;100.00;98102.03;4833182;29;20094;-88
2023/01/14 00:08:27;;;;;;;24.85;5.55;;;;;;;8.24;100.00;98095.63;4820305;29;20082;-86
2023/01/14 00:10:53;;;;;;;25.40;5.65;;;;;;;8.35;100.00;98093.38;4833224;29;20492;-85
2023/01/14 00:13:18;;;;;;;21.20;5.90;;;;;;;8.32;100.00;98080.72;4827683;29;20034;-86
2023/01/14 00:15:56;;;;;;;23.13;6.32;;;;;;;8.40;100.00;98078.69;4840142;29;20112;-86
2023/01/14 00:18:23;;;;;;;25.65;5.05;;;;;;;8.47;100.00;98077.91;4830872;29;20038;-86
2023/01/14 00:21:12;;;;;;;21.60;5.57;;;;;;;8.46;100.00;98065.81;4840731;29;20044;-86
2023/01/14 00:23:38;;;;;;;21.40;4.97;;;;;;;8.33;100.00;98051.75;4831974;29;20085;-88
2023/01/14 00:26:06;;;;;;;27.15;5.07;;;;;;;8.40;100.00;98056.97;4834737;29;20066;-87
2023/01/14 00:28:32;;;;;;;30.23;5.55;;;;;;;8.47;100.00;98052.53;4839333;29;20830;-87
2023/01/14 00:31:10;;;;;;;23.45;5.03;;;;;;;8.36;100.00;98046.13;4827936;29;20030;-85
2023/01/14 00:33:37;;;;;;;22.75;4.55;;;;;;;8.54;100.00;98052.53;4847864;29;20113;-86
2023/01/14 00:36:04;;;;;;;20.92;4.30;;;;;;;8.40;100.00;98031.63;4837329;29;20388;-85
2023/01/14 00:38:30;;;;;;;20.30;4.22;;;;;;;8.34;100.00;98021.16;4835894;29;20374;-86
2023/01/14 00:41:07;;;;;;;21.52;4.55;;;;;;;8.55;100.00;98022.75;4834811;29;20063;-86
2023/01/14 00:43:38;;;;;;;22.42;4.38;;;;;;;8.57;100.00;98024.19;4835911;29;20438;-85
2023/01/14 00:46:05;;;;;;;24.15;4.22;;;;;;;8.45;100.00;98010.09;4829841;29;20114;-85
2023/01/14 00:48:32;;;;;;;22.17;6.07;;;;;;;8.51;100.00;97995.41;4831847;29;20404;-85
2023/01/14 00:50:58;;;;;;;22.20;4.05;;;;;;;8.48;100.00;98003.66;4845538;29;20034;-85
2023/01/14 00:53:25;;;;;;;33.03;5.88;;;;;;;8.53;100.00;97982.94;4830190;29;20040;-85
2023/01/14 00:55:50;;;;;;;17.10;4.53;;;;;;;8.50;100.00;97965.06;4832932;29;20034;-85
2023/01/14 00:58:16;;;;;;;22.25;6.10;;;;;;;8.33;100.00;97977.72;4831233;29;20038;-85
2023/01/14 01:00:43;;;;;;;21.65;6.03;;;;;;;8.25;100.00;97952.63;4830835;29;20034;-85
2023/01/14 01:03:08;;;;;;;20.42;6.53;;;;;;;8.41;100.00;97949.53;4836048;29;20057;-85
2023/01/14 01:05:38;;;;;;;22.83;5.90;;;;;;;8.50;100.00;97937.06;4834206;29;20034;-85
2023/01/14 01:08:05;;;;;;;20.45;6.28;;;;;;;8.56;100.00;97936.25;4842837;29;20054;-85
2023/01/14 01:10:33;;;;;;;23.88;7.18;;;;;;;8.68;100.00;97933.78;4829231;29;20034;-85
2023/01/14 01:12:59;;;;;;;21.25;7.32;;;;;;;8.54;100.00;97919.16;4833260;29;20014;-86
2023/01/14 01:15:25;;;;;;;28.08;8.00;;;;;;;8.53;100.00;97910.50;4849928;29;20549;-86
2023/01/14 01:17:50;;;;;;;22.38;6.82;;;;;;;8.74;100.00;97900.72;4837592;29;20037;-84
2023/01/14 01:20:16;;;;;;;19.50;8.48;;;;;;;8.67;100.00;97890.31;4832388;29;20085;-86
2023/01/14 01:22:42;;;;;;;24.08;7.00;;;;;;;8.58;100.00;97896.78;4846238;29;20125;-85
2023/01/14 01:25:08;;;;;;;24.75;7.10;;;;;;;8.68;100.00;97889.31;4832156;29;20037;-85
2023/01/14 01:27:33;;;;;;;24.58;7.18;;;;;;;8.64;100.00;97875.03;4832674;29;20035;-86
2023/01/14 01:29:59;;;;;;;28.13;7.15;;;;;;;8.70;100.00;97868.97;4833161;29;22997;-85
2023/01/14 01:32:25;;;;;;;18.45;6.45;;;;;;;8.61;100.00;97854.53;4825418;29;20120;-85
2023/01/14 01:34:50;;;;;;;19.65;6.30;;;;;;;8.66;100.00;97844.25;4832585;29;20041;-85
2023/01/14 01:37:23;;;;;;;16.92;6.18;;;;;;;8.73;100.00;97840.78;4832614;29;20044;-85
2023/01/14 01:39:49;;;;;;;18.00;6.07;;;;;;;8.75;100.00;97829.09;4840586;29;20041;-85
2023/01/14 01:42:15;;;;;;;21.10;6.47;;;;;;;8.54;100.00;97825.78;4834817;29;20034;-86
2023/01/14 01:44:42;;;;;;;19.33;5.93;;;;;;;8.76;100.00;97824.66;4842999;29;20026;-86
2023/01/14 01:47:08;;;;;;;22.65;6.15;;;;;;;8.77;100.00;97806.13;4835331;29;20044;-86
2023/01/14 01:49:38;;;;;;;24.23;7.10;;;;;;;8.64;100.00;97783.47;4822865;29;20036;-86
2023/01/14 01:52:12;;;;;;;21.15;6.80;;;;;;;8.71;100.00;97768.53;4836758;29;20402;-85
2023/01/14 01:55:09;;;;;;;24.75;6.60;;;;;;;8.88;100.00;97773.25;4822565;29;20074;-86
2023/01/14 01:57:35;;;;;;;25.05;7.22;;;;;;;8.82;100.00;97766.22;4811356;29;20045;-85
2023/01/14 02:00:07;;;;;;;21.00;6.35;;;;;;;8.81;100.00;97754.97;4828549;29;20037;-85
2023/01/14 02:02:33;;;;;;;17.33;5.57;;;;;;;8.65;100.00;97742.44;4827718;29;20061;-87
2023/01/14 02:04:59;;;;;;;11.07;5.60;;;;;;;8.71;100.00;97724.06;4828865;29;20038;-85
2023/01/14 02:07:26;;;;;;;12.07;5.40;;;;;;;8.86;100.00;97709.84;4836768;29;20508;-87
2023/01/14 02:10:04;;;;;;;23.73;5.80;;;;;;;8.82;100.00;97698.19;4837337;29;20057;-86
2023/01/14 02:12:51;;;;;;;16.40;5.25;;;;;;;9.05;100.00;97697.56;4839666;29;20033;-86
2023/01/14 02:15:31;;;;;;;13.00;4.55;;;;;;;8.96;100.00;97693.66;4827526;29;20038;-85
2023/01/14 02:18:36;;;;;;;14.95;5.03;;;;;;;8.82;100.00;97666.81;4831496;29;20421;-85
2023/01/14 02:21:11;;;;;;;17.15;4.22;;;;;;;8.90;100.00;97674.38;4829042;29;20141;-85
2023/01/14 02:24:24;;;;;;;8.00;3.42;;;;;;;8.93;100.00;97668.72;4829697;29;20041;-86
2023/01/14 02:27:15;;;;;;;15.50;4.15;;;;;;;8.88;100.00;97657.28;4819954;29;20631;-85
2023/01/14 02:29:43;;;;;;;11.30;4.10;;;;;;;9.02;100.00;97647.47;4844985;29;20038;-87
2023/01/14 02:32:18;;;;;;;12.48;3.72;;;;;;;9.06;100.00;97631.13;4833055;29;20038;-86
2023/01/14 02:35:08;;;;;;;14.60;4.03;;;;;;;9.11;100.00;97622.63;4833572;29;20041;-85
2023/01/14 02:37:54;;;;;;;11.35;3.63;;;;;;;9.08;100.00;97609.97;4844016;29;20050;-87
2023/01/14 02:40:51;;;;;;;10.25;3.95;;;;;;;8.75;100.00;97603.28;4831034;29;21134;-85
2023/01/14 02:46:17;;;;;;;12.10;3.60;;;;;;;9.06;100.00;97580.59;4826253;29;20034;-86
2023/01/14 02:48:44;;;;;;;12.30;3.20;;;;;;;8.90;100.00;97564.47;4830999;29;20481;-85
2023/01/14 02:51:11;;;;;;;8.52;2.63;;;;;;;9.12;100.00;97553.53;4838018;29;20489;-86
2023/01/14 02:53:37;;;;;;;8.02;2.60;;;;;;;8.86;100.00;97537.16;4829736;29;20473;-88
2023/01/14 02:56:05;;;;;;;7.30;2.80;;;;;;;8.79;100.00;97526.78;4830725;29;20482;-86
2023/01/14 02:59:03;;;;;;;9.50;3.00;;;;;;;8.94;100.00;97507.25;4836332;29;20047;-85
2023/01/14 03:02:01;;;;;;;10.00;3.10;;;;;;;8.88;100.00;97498.47;4832302;29;20043;-87
2023/01/14 03:04:39;;;;;;;6.20;2.78;;;;;;;9.10;100.00;97483.06;4805839;29;20042;-87
2023/01/14 03:07:27;;;;;;;9.82;2.95;;;;;;;9.14;100.00;97479.00;4842170;29;20138;-89
2023/01/14 03:09:58;;;;;;;10.23;3.00;;;;;;;9.15;100.00;97461.47;4827299;29;20087;-90
2023/01/14 03:12:44;;;;;;;11.05;3.20;;;;;;;9.16;100.00;97454.41;4824311;29;20483;-89
2023/01/14 03:15:28;;;;;;;10.00;2.72;;;;;;;9.23;100.00;97437.56;4842207;29;20490;-90
2023/01/14 03:18:25;;;;;;;10.35;2.67;;;;;;;9.42;100.00;97432.25;4834447;29;20486;-87
2023/01/14 03:21:04;;;;;;;8.75;2.72;;;;;;;9.18;100.00;97416.50;4768492;29;20059;-87
2023/01/14 03:23:36;;;;;;;14.73;2.95;;;;;;;9.27;100.00;97411.75;4836038;29;20504;-89
2023/01/14 03:26:05;;;;;;;8.07;2.85;;;;;;;9.24;100.00;97393.88;4835837;29;20039;-88
2023/01/14 03:28:36;;;;;;;10.00;2.80;;;;;;;9.20;100.00;97385.66;4851862;29;20042;-89
2023/01/14 03:31:07;;;;;;;16.05;3.15;;;;;;;9.37;100.00;97380.56;4834772;29;20178;-87
2023/01/14 03:33:39;;;;;;;14.73;3.10;;;;;;;9.35;100.00;97356.44;4813817;29;20035;-87
2023/01/14 03:36:06;;;;;;;25.10;3.80;;;;;;;9.16;100.00;97345.25;4848665;29;20084;-88
2023/01/14 03:38:52;;;;;;;11.48;2.90;;;;;;;9.20;100.00;97338.53;4835039;29;20166;-87
2023/01/14 03:44:30;;;;;;;4.70;1.98;;;;;;;9.39;100.00;97314.84;4847767;29;20855;-88
2023/01/14 03:46:56;;;;;;;9.52;2.55;;;;;;;9.34;100.00;97296.44;4832989;29;20044;-88
2023/01/14 03:49:23;;;;;;;5.97;2.25;;;;;;;9.41;100.00;97287.44;4840773;29;20044;-88
2023/01/14 03:52:17;;;;;;;8.45;2.35;;;;;;;9.49;100.00;97278.44;4841506;29;20132;-87
2023/01/14 03:54:52;;;;;;;4.60;1.70;;;;;;;9.37;100.00;97261.94;4830855;29;20505;-88
2023/01/14 03:57:36;;;;;;;8.63;2.10;;;;;;;9.36;100.00;97252.47;4841440;29;20046;-88
2023/01/14 04:00:19;;;;;;;5.30;1.67;;;;;;;9.50;100.00;97232.88;4830240;29;20129;-87
2023/01/14 04:02:47;;;;;;;9.90;2.28;;;;;;;9.41;100.00;97213.28;4831575;29;20066;-89
2023/01/14 04:05:12;;;;;;;6.75;1.90;;;;;;;9.39;100.00;97210.13;4832596;29;20510;-89
2023/01/14 04:11:17;;;;;;;6.95;2.30;;;;;;;9.47;100.00;97183.59;4831598;29;20029;-89
2023/01/14 04:16:57;;;;;;;4.25;2.15;;;;;;;9.66;100.00;97155.38;4847074;29;20041;-88
2023/01/14 04:19:28;;;;;;;3.67;1.95;;;;;;;9.72;100.00;97141.31;4830076;29;20037;-87
2023/01/14 04:21:54;;;;;;;4.22;1.98;;;;;;;9.64;100.00;97126.00;4848432;29;20038;-88
2023/01/14 04:24:41;;;;;;;5.25;2.17;;;;;;;9.78;100.00;97129.09;4842099;29;20042;-88
2023/01/14 04:27:09;;;;;;;6.65;2.20;;;;;;;9.77;100.00;97121.50;4825229;29;20081;-87
2023/01/14 04:29:47;;;;;;;3.97;2.15;;;;;;;9.75;100.00;97100.75;4840892;29;20149;-89
2023/01/14 04:32:25;;;;;;;4.57;1.80;;;;;;;9.86;100.00;97105.16;4849740;29;20110;-90
2023/01/14 04:34:50;;;;;;;2.85;1.60;;;;;;;9.99;100.00;97090.94;4840180;29;20046;-88
2023/01/14 04:37:39;;;;;;;6.65;1.90;;;;;;;9.82;100.00;97067.31;4833334;29;20038;-87
2023/01/14 04:40:05;;;;;;;8.30;1.63;;;;;;;9.92;100.00;97063.28;4835230;29;20103;-88
2023/01/14 04:42:33;;;;;;;3.10;1.40;;;;;;;9.86;100.00;97052.75;4831239;29;20038;-89
2023/01/14 04:45:03;;;;;;;2.75;1.35;;;;;;;10.11;100.00;97038.41;4825698;29;20380;-88
2023/01/14 04:47:30;;;;;;;2.30;1.38;;;;;;;10.12;100.00;97032.13;4835853;29;20143;-89
2023/01/14 04:49:56;;;;;;;4.70;1.20;;;;;;;10.02;100.00;97028.56;4825292;29;20489;-87
2023/01/14 04:52:26;;;;;;;3.75;1.10;;;;;;;10.11;100.00;97017.44;4831826;29;20095;-87
2023/01/14 04:54:52;;;;;;;1.90;1.10;;;;;;;10.15;100.00;97000.19;4839617;29;20034;-88
2023/01/14 04:57:18;;;;;;;4.50;1.30;;;;;;;10.17;100.00;96991.28;4828904;29;20092;-91
2023/01/14 04:59:44;;;;;;;2.10;1.08;;;;;;;10.14;100.00;96989.97;4825082;29;20029;-88
2023/01/14 05:02:09;;;;;;;6.05;1.42;;;;;;;10.07;100.00;96963.91;4833977;29;20027;-89
2023/01/14 05:04:35;;;;;;;2.53;1.10;;;;;;;10.18;100.00;96951.72;4842386;29;20065;-88
2023/01/14 05:07:02;;;;;;;3.13;1.20;;;;;;;10.24;100.00;96948.13;4831908;29;20065;-87
2023/01/14 05:09:29;;;;;;;3.22;1.20;;;;;;;10.04;100.00;96943.44;4835364;29;20092;-87
2023/01/14 05:11:55;;;;;;;2.90;1.30;;;;;;;10.06;100.00;96923.00;4835007;29;20045;-89
2023/01/14 05:14:20;;;;;;;4.70;1.30;;;;;;;10.11;100.00;96919.63;4842173;29;20413;-89
2023/01/14 05:16:46;;;;;;;2.65;1.30;;;;;;;10.07;100.00;96908.88;4827148;29;20042;-90
2023/01/14 05:19:11;;;;;;;3.00;1.23;;;;;;;10.02;100.00;96900.94;4834356;29;20034;-89
2023/01/14 05:21:37;;;;;;;2.22;1.40;;;;;;;10.21;100.00;96888.31;4830208;29;20477;-90
2023/01/14 05:24:03;;;;;;;2.00;1.20;;;;;;;10.15;100.00;96878.81;4824378;29;20031;-89
2023/01/14 05:26:29;;;;;;;1.88;1.08;;;;;;;10.14;100.00;96861.50;4836596;29;20034;-88
2023/01/14 05:28:55;;;;;;;2.33;0.85;;;;;;;10.20;100.00;96849.22;4844071;29;20046;-87
2023/01/14 05:31:21;;;;;;;3.97;1.10;;;;;;;10.27;100.00;96848.00;4841965;29;20034;-89
2023/01/14 05:33:46;;;;;;;2.78;0.98;;;;;;;10.26;100.00;96840.41;4845823;29;20039;-89
2023/01/14 05:36:13;;;;;;;2.13;1.15;;;;;;;10.29;100.00;96842.53;4836040;29;20041;-88
2023/01/14 05:38:38;;;;;;;1.52;0.90;;;;;;;10.28;100.00;96814.72;4846258;29;20470;-87
2023/01/14 05:41:04;;;;;;;1.67;1.00;;;;;;;10.40;100.00;96817.19;4834754;29;20059;-87
2023/01/14 05:46:15;;;;;;;2.20;0.90;;;;;;;10.39;100.00;96797.25;4838567;29;20042;-88
2023/01/14 05:48:41;;;;;;;2.20;0.90;;;;;;;10.33;100.00;96793.78;4841987;29;20034;-88
2023/01/14 05:51:06;;;;;;;2.72;1.10;;;;;;;10.39;100.00;96777.03;4833278;29;20034;-89
2023/01/14 05:53:33;;;;;;;2.10;1.35;;;;;;;10.39;100.00;96765.78;4838968;29;20414;-89
2023/01/14 05:55:59;;;;;;;3.53;0.80;;;;;;;10.25;100.00;96741.81;4825329;29;20045;-87
2023/01/14 05:58:26;;;;;;;3.42;0.80;;;;;;;10.45;100.00;96732.56;4836744;29;20042;-88
2023/01/14 06:06:27;;;;;;;1.30;0.80;;;;;;;10.67;100.00;96730.63;4831602;29;20030;-88
2023/01/14 06:08:59;;;;;;;1.60;1.00;;;;;;;10.66;100.00;96713.28;4842274;29;20441;-87
2023/01/14 06:11:26;;;;;;;4.32;0.82;;;;;;;10.75;100.00;96704.94;4833953;29;20054;-87
2023/01/14 06:13:56;;;;;;;1.45;0.93;;;;;;;10.67;100.00;96672.91;4838736;29;20492;-89
2023/01/14 06:16:23;;;;;;;2.33;1.10;;;;;;;10.55;100.00;96667.03;4841762;29;20478;-88
2023/01/14 06:18:48;;;;;;;1.80;1.30;;;;;;;10.68;100.00;96663.19;4826768;29;20159;-88
2023/01/14 06:21:22;;;;;;;2.53;1.30;;;;;;;10.76;100.00;96659.28;4830928;29;20079;-88
2023/01/14 06:23:48;;;;;;;4.38;2.63;;;;;;;10.84;100.00;96643.06;4830438;29;20027;-88
2023/01/14 06:26:17;;;;;;;1.92;1.60;;;;;;;10.69;100.00;96628.03;4835054;29;20064;-88
2023/01/14 06:28:42;;;;;;;1.52;1.42;;;;;;;10.61;100.00;96610.97;4835384;29;20035;-87
2023/01/14 06:31:16;;;;;;;1.90;1.60;;;;;;;10.66;100.00;96605.72;4841777;29;20038;-89
2023/01/14 06:33:43;;;;;;;1.75;1.23;;;;;;;10.62;100.00;96607.28;4823335;29;20129;-85
2023/01/14 06:36:10;;;;;;;1.55;1.30;;;;;;;10.79;100.00;96595.81;4835616;29;20042;-91
2023/01/14 06:38:38;;;;;;;6.32;2.33;;;;;;;10.85;100.00;96594.78;4828504;29;20503;-86
2023/01/14 06:41:05;;;;;;;1.88;1.20;;;;;;;10.95;100.00;96594.03;4834974;29;20121;-89
2023/01/14 06:43:31;;;;;;;5.85;2.25;;;;;;;10.92;100.00;96576.97;4838943;29;20091;-88
2023/01/14 06:45:57;;;;;;;1.33;0.77;;;;;;;10.90;100.00;96565.94;4837934;29;20381;-88
2023/01/14 06:48:24;;;;;;;7.63;2.10;;;;;;;10.90;100.00;96544.94;4844701;29;20030;-88
2023/01/14 06:50:50;;;;;;;1.80;0.70;;;;;;;11.09;100.00;96554.97;4843949;29;20421;-87
2023/01/14 06:53:17;;;;;;;1.40;0.60;;;;;;;10.90;100.00;96529.19;4841068;29;20061;-88
2023/01/14 06:55:42;;;;;;;0.70;0.70;;;;;;;10.83;100.00;96518.94;4833196;29;20182;-85
2023/01/14 06:58:08;;;;;;;2.33;0.70;;;;;;;11.04;100.00;96539.22;4828848;29;20045;-87
2023/01/14 07:00:34;;;;;;;3.35;1.25;;;;;;;11.04;100.00;96523.47;4832361;29;20038;-89
2023/01/14 07:03:00;;;;;;;1.30;0.70;;;;;;;11.15;100.00;96525.03;4843970;29;20426;-86
2023/01/14 07:05:27;;;;;;;0.52;0.50;;;;;;;11.08;100.00;96511.38;4835811;29;20473;-85
2023/01/14 07:07:53;;;;;;;1.17;0.90;;;;;;;11.24;100.00;96506.94;4827454;29;20069;-87
2023/01/14 07:10:18;;;;;;;0.95;0.70;;;;;;;11.29;100.00;96515.63;4834637;29;20035;-86
2023/01/14 07:12:46;;;;;;;0.75;0.70;;;;;;;11.33;100.00;96502.75;4842041;29;20405;-87
2023/01/14 07:15:12;;;;;;;1.60;0.55;;;;;;;11.21;100.00;96492.50;4842038;29;20034;-85
2023/01/14 07:17:38;;;;;;;1.08;0.63;;;;;;;11.29;100.00;96483.31;4836201;29;20048;-84
2023/01/14 07:20:06;;;;;;;1.70;0.52;;;;;;;11.14;100.00;96465.72;4838792;29;20124;-84
2023/01/14 07:22:32;;;;;;;2.05;0.65;;;;;;;11.23;100.00;96471.22;4842708;29;20407;-85
2023/01/14 07:24:59;;;;;;;0.70;0.52;;;;;;;11.39;100.00;96479.91;4835899;29;20030;-86
2023/01/14 07:27:25;;;;;;;0.63;0.63;;;;;;;11.39;100.00;96480.69;4849682;29;20486;-86
2023/01/14 07:29:51;;;;;;;0.70;0.60;;;;;;;11.56;100.00;96471.75;4834083;29;20030;-86
2023/01/14 07:32:16;;;;;;;0.70;0.70;;;;;;;11.48;100.00;96467.03;4843323;29;20098;-87
2023/01/14 07:34:42;;;;;;;0.60;0.60;;;;;;;11.49;100.00;96466.78;4850156;29;20122;-87
2023/01/14 07:37:07;;;;;;;0.73;0.70;;;;;;;11.44;100.00;96456.28;4841569;29;20030;-87
2023/01/14 07:39:33;;;;;;;1.20;0.80;;;;;;;11.48;100.00;96448.63;4834159;29;20039;-85
2023/01/14 07:41:59;;;;;;;0.80;0.80;;;;;;;11.53;100.00;96465.19;4830247;29;21483;-82
2023/01/14 07:44:25;;;;;;;0.60;0.60;;;;;;;11.55;100.00;96449.94;4832233;29;20053;-84
2023/01/14 07:47:16;;;;;;;0.60;0.60;;;;;;;11.51;100.00;96446.28;4813738;29;20046;-87
2023/01/14 07:49:42;;;;;;;0.80;0.80;;;;;;;11.41;100.00;96441.03;4831209;29;20069;-87
2023/01/14 07:52:12;;;;;;;3.05;1.00;;;;;;;11.42;100.00;96434.75;4839495;29;20079;-87
2023/01/14 07:54:39;;;;;;;1.88;1.38;;;;;;;11.49;100.00;96445.75;4833686;29;20046;-87
2023/01/14 07:57:04;;;;;;;2.78;1.60;;;;;;;11.61;100.00;96428.94;4849308;29;20033;-87
2023/01/14 07:59:30;;;;;;;0.85;0.85;;;;;;;11.39;100.00;96443.91;4833444;29;20038;-89
2023/01/14 08:01:56;;;;;;;2.15;0.80;;;;;;;11.42;100.00;96451.28;4848555;29;20198;-86
2023/01/14 08:04:21;;;;;;;1.30;1.20;;;;;;;11.69;100.00;96446.78;4839287;29;20038;-87
2023/01/14 08:07:06;;;;;;;1.30;1.02;;;;;;;11.67;100.00;96441.00;4831567;29;20398;-87
2023/01/14 08:09:35;;;;;;;1.95;1.15;;;;;;;11.69;100.00;96429.19;4829139;29;20069;-87
2023/01/14 08:12:01;;;;;;;1.67;1.58;;;;;;;11.62;100.00;96425.25;4839465;29;20190;-87
2023/01/14 08:14:27;;;;;;;1.27;1.15;;;;;;;11.53;100.00;96435.50;4840352;29;20098;-88
2023/01/14 08:16:52;;;;;;;1.85;1.30;;;;;;;11.66;100.00;96432.31;4834609;29;20027;-88
2023/01/14 08:19:18;;;;;;;1.30;1.20;;;;;;;11.56;100.00;96446.25;4852453;29;20073;-88
2023/01/14 08:22:14;;;;;;;1.77;1.30;;;;;;;11.73;100.00;96442.56;4838838;29;20145;-88
2023/01/14 08:24:40;;;;;;;3.53;1.90;;;;;;;11.38;100.00;96402.16;4783686;29;20044;-88
2023/01/14 08:27:27;;;;;;;1.70;1.48;;;;;;;11.50;100.00;96431.56;4837845;29;20117;-89
2023/01/14 08:30:21;;;;;;;1.27;1.17;;;;;;;11.70;100.00;96430.75;4829551;29;20054;-89
2023/01/14 08:32:50;;;;;;;1.95;1.50;;;;;;;11.40;100.00;96394.81;4845362;29;20051;-89
2023/01/14 08:35:19;;;;;;;1.52;1.00;;;;;;;11.68;100.00;96416.31;4827014;29;20135;-89
2023/01/14 08:37:44;;;;;;;1.70;1.15;;;;;;;11.54;100.00;96427.34;4835687;29;20378;-89
2023/01/14 08:40:10;;;;;;;1.50;1.17;;;;;;;11.63;100.00;96434.72;4835015;29;20026;-90
2023/01/14 08:42:36;;;;;;;1.90;1.30;;;;;;;11.74;100.00;96452.03;4825204;29;20033;-88
2023/01/14 08:45:02;;;;;;;2.10;1.42;;;;;;;11.57;100.00;96429.44;4833190;29;20031;-88
2023/01/14 08:47:30;;;;;;;1.80;1.60;;;;;;;11.72;100.00;96446.25;4849174;29;20430;-90
2023/01/14 08:49:56;;;;;;;1.30;1.10;;;;;;;11.59;100.00;96444.94;4827847;29;20109;-90
2023/01/14 08:52:25;;;;;;;1.88;1.17;;;;;;;11.68;100.00;96421.56;4826450;29;20039;-89
2023/01/14 08:54:59;;;;;;;1.40;1.20;;;;;;;11.73;100.00;96452.31;4832717;29;20026;-88
2023/01/14 08:57:24;;;;;;;1.20;1.00;;;;;;;11.80;100.00;96444.91;4831621;29;20595;-86
2023/01/14 08:59:51;;;;;;;2.60;1.70;;;;;;;11.52;100.00;96450.47;4829994;29;20042;-87
2023/01/14 09:02:19;;;;;;;4.40;2.90;;;;;;;11.63;100.00;96461.75;4832474;29;20629;-87
2023/01/14 09:04:44;;;;;;;3.70;2.55;;;;;;;11.63;100.00;96461.00;4836203;29;20034;-88
2023/01/14 09:18:53;;;;;;;2.72;2.45;;;;;;;11.10;100.00;96494.34;4830887;29;20042;-88
2023/01/14 09:21:36;;;;;;;2.92;2.50;;;;;;;10.99;100.00;96496.13;4807716;29;20065;-88
2023/01/14 09:24:01;;;;;;;1.90;1.70;;;;;;;10.63;100.00;96488.19;4835661;29;20026;-88
2023/01/14 09:26:30;;;;;;;2.38;1.45;;;;;;;10.86;100.00;96517.66;4831335;29;20062;-88
2023/01/14 09:28:55;;;;;;;1.92;1.00;;;;;;;10.70;100.00;96512.34;4832544;29;20062;-88
2023/01/14 09:31:47;;;;;;;1.10;1.00;;;;;;;10.69;100.00;96530.94;4831417;29;20401;-87
2023/01/14 09:34:14;;;;;;;1.00;0.90;;;;;;;10.62;100.00;96491.88;4845905;29;20042;-88
2023/01/14 09:36:44;;;;;;;1.23;1.10;;;;;;;10.65;100.00;96503.66;4835254;29;20037;-87
2023/01/14 09:39:10;;;;;;;0.88;0.88;;;;;;;10.73;100.00;96502.38;4816805;29;20034;-89
2023/01/14 09:41:50;;;;;;;1.15;1.05;;;;;;;10.68;100.00;96501.31;4829746;29;20034;-89
2023/01/14 09:44:19;;;;;;;1.00;0.90;;;;;;;10.68;100.00;96495.28;4834541;29;20037;-89
2023/01/14 09:46:48;;;;;;;0.98;0.88;;;;;;;10.75;100.00;96501.09;4832174;29;20117;-89
2023/01/14 09:49:20;;;;;;;0.80;0.80;;;;;;;10.73;100.00;96518.13;4842897;29;20038;-89
2023/01/14 09:52:12;;;;;;;0.82;0.82;;;;;;;10.29;100.00;96520.03;4844516;29;20042;-88
2023/01/14 09:55:09;;;;;;;1.67;1.15;;;;;;;10.60;100.00;96535.13;4825406;29;20439;-88
2023/01/14 09:58:18;;;;;;;1.13;1.00;;;;;;;10.18;100.00;96550.63;4847465;29;20065;-90
2023/01/14 10:01:19;;;;;;;2.55;1.20;;;;;;;10.24;100.00;96543.59;4829920;29;20054;-91
2023/01/14 10:04:19;;;;;;;2.05;1.50;;;;;;;10.50;100.00;96536.66;4822426;29;20042;-88
2023/01/14 10:06:52;;;;;;;2.33;1.85;;;;;;;10.43;100.00;96560.50;4847470;29;20516;-90
2023/01/14 10:09:33;;;;;;;3.08;1.65;;;;;;;10.57;100.00;96546.91;4834944;29;20058;-90
2023/01/14 10:12:13;;;;;;;3.20;2.20;;;;;;;10.61;100.00;96562.94;4835897;29;20063;-91
2023/01/14 10:15:05;;;;;;;4.82;2.88;;;;;;;10.45;100.00;96517.50;4838616;29;20401;-91
2023/01/14 10:17:42;;;;;;;5.88;2.38;;;;;;;10.27;100.00;96516.88;4839655;29;20386;-89
2023/01/14 10:24:35;;;;;;;5.10;2.05;;;;;;;10.55;100.00;96546.38;4816392;29;20081;-90
2023/01/14 10:59:23;;;;;;;3.57;1.30;;;;;;;9.27;100.00;96594.94;4796273;30;20582;-90
2023/01/14 11:31:35;;;;;;;9.23;2.80;;;;;;;8.35;100.00;96629.38;4772167;30;20097;-90
2023/01/14 11:52:38;;;;;;;7.70;1.42;;;;;;;8.25;100.00;96635.25;4839825;29;20062;-89
2023/01/14 12:19:57;;;;;;;;;;;;;;;;;;;;;
2023/01/14 13:31:46;;;;;;;7.82;2.75;;;;;;;8.84;100.00;96686.28;4787088;30;20087;-87
2023/01/14 13:38:48;;;;;;;10.43;2.90;;;;;;;8.53;100.00;96696.34;4802361;29;20613;-87
2023/01/14 13:49:01;;;;;;;10.98;3.05;;;;;;;8.28;100.00;96707.97;4809531;29;20058;-87
2023/01/14 13:54:51;;;;;;;8.15;2.53;;;;;;;8.34;100.00;96709.63;4827318;29;20382;-87
2023/01/14 14:09:31;;;;;;;7.75;2.30;;;;;;;8.36;100.00;96723.25;4851017;29;20059;-88
2023/01/14 14:15:35;;;;;;;;;;;;;;;8.41;100.00;96718.09;4840523;29;20501;-87
2023/01/14 14:25:44;;;;;;;7.25;1.70;;;;;;;7.99;100.00;96750.59;4835147;29;20121;-88
2023/01/14 14:28:27;;;;;;;9.48;1.70;;;;;;;8.33;100.00;96728.13;4820479;29;20070;-88
2023/01/14 14:44:05;;;;;;;;;;;;;;;;;;;;;
2023/01/14 14:50:41;;;;;;;5.65;1.77;;;;;;;8.29;100.00;96730.47;4843016;29;20135;-91
2023/01/14 14:53:44;;;;;;;6.68;1.70;;;;;;;8.14;100.00;96730.97;4834042;29;20516;-89
2023/01/14 15:00:37;;;;;;;11.70;1.83;;;;;;;8.39;100.00;96737.66;4786252;30;20124;-90
2023/01/14 15:03:06;;;;;;;5.90;1.48;;;;;;;8.25;100.00;96726.72;4773952;29;20039;-91
2023/01/14 15:05:42;;;;;;;3.67;1.58;;;;;;;8.37;100.00;96756.19;4757352;30;20074;-90
2023/01/14 15:08:23;;;;;;;4.43;1.30;;;;;;;8.09;100.00;96749.19;4785806;29;20050;-88
2023/01/14 15:10:52;;;;;;;6.95;1.42;;;;;;;8.20;100.00;96756.19;4836673;29;20046;-88
2023/01/14 15:13:32;;;;;;;11.10;1.70;;;;;;;8.21;100.00;96757.75;4838021;29;20051;-88
2023/01/14 15:16:24;;;;;;;5.13;1.70;;;;;;;8.26;100.00;96778.75;4819772;29;20034;-87
2023/01/14 15:23:07;;;;;;;5.18;1.50;;;;;;;7.95;100.00;96772.97;4838455;29;20083;-91
2023/01/14 15:32:45;;;;;;;8.55;1.55;;;;;;;7.77;100.00;96750.44;4840526;29;20030;-87
2023/01/14 15:35:32;;;;;;;9.10;1.88;;;;;;;7.88;100.00;96759.28;4819435;29;20182;-88
2023/01/14 15:38:01;;;;;;;4.65;1.75;;;;;;;7.97;100.00;96760.50;4816438;29;20034;-90
2023/01/14 15:40:31;;;;;;;2.63;1.45;;;;;;;7.77;100.00;96752.28;4832023;29;20074;-87
2023/01/14 15:43:00;;;;;;;11.02;1.65;;;;;;;7.88;100.00;96753.25;4834516;29;20046;-88
2023/01/14 15:45:31;;;;;;;4.50;2.22;;;;;;;8.02;100.00;96753.78;4834438;29;20078;-88
2023/01/14 15:48:07;;;;;;;4.95;1.73;;;;;;;8.24;100.00;96759.91;4811241;29;20532;-88
2023/01/14 15:50:40;;;;;;;8.60;1.98;;;;;;;7.76;100.00;96746.25;4819840;29;20500;-87
2023/01/14 15:53:24;;;;;;;9.30;2.60;;;;;;;8.11;100.00;96755.78;4837365;29;20374;-88
2023/01/14 15:56:11;;;;;;;7.47;2.38;;;;;;;8.04;100.00;96760.34;4842035;29;20446;-87
2023/01/14 15:58:53;;;;;;;13.25;8.07;;;;;;;8.08;100.00;96756.25;4833577;29;20044;-90
2023/01/14 16:01:31;;;;;;;11.95;7.00;;;;;;;7.67;100.00;96773.78;4832025;29;20507;-90
2023/01/14 16:03:59;;;;;;;15.90;6.32;;;;;;;7.77;100.00;96768.75;4847685;29;20062;-88
2023/01/14 16:06:41;;;;;;;13.98;6.32;;;;;;;8.04;100.00;96765.56;4830878;29;20046;-87
2023/01/14 16:09:14;;;;;;;12.95;3.85;;;;;;;7.75;100.00;96776.00;4833518;29;20030;-87
2023/01/14 16:11:52;;;;;;;22.70;12.52;;;;;;;7.92;100.00;96786.50;4852335;29;20038;-90
2023/01/14 16:14:36;;;;;;;22.88;11.10;;;;;;;7.43;100.00;96795.50;4829040;29;20042;-88
2023/01/14 16:17:11;;;;;;;21.05;9.25;;;;;;;7.45;100.00;96792.63;4851163;29;20114;-87
2023/01/14 16:19:37;;;;;;;10.82;6.32;;;;;;;7.38;100.00;96778.94;4842205;29;20061;-88
2023/01/14 16:22:02;;;;;;;8.60;3.25;;;;;;;7.48;100.00;96791.41;4833801;29;20058;-89
2023/01/14 16:24:28;;;;;;;8.13;2.67;;;;;;;7.42;100.00;96803.53;4834604;29;20037;-88
2023/01/14 16:26:54;;;;;;;9.07;4.97;;;;;;;7.52;100.00;96788.09;4848750;29;20053;-88
2023/01/14 16:29:20;;;;;;;7.07;2.78;;;;;;;7.49;100.00;96791.19;4827063;29;20140;-88
2023/01/14 16:31:46;;;;;;;10.80;3.97;;;;;;;7.38;100.00;96784.97;4831921;29;20053;-88
2023/01/14 16:34:12;;;;;;;15.38;4.28;;;;;;;7.35;100.00;96782.00;4848641;29;20038;-88